Time;durP1;ratioP1;P1;durP2;ratioP2;P2;SDS_P1;SDS_P2;PMS_P1;PMS_P2;Temp;Humidity;BMP_temperature;BMP_pressure;BME280_temperature;BME280_humidity;BME280_pressure;Samples;Min_cycle;Max_cycle;Signal;HPM_P1;HPM_P2
2023/05/29 00:02:21;;;;;;;7.95;4.40;;;;;;;12.54;100.00;102021.69;5112623;28;20075;-78
2023/05/29 00:04:46;;;;;;;8.20;3.50;;;;;;;12.43;100.00;102014.19;5093795;28;20038;-76
2023/05/29 00:07:12;;;;;;;6.38;3.95;;;;;;;12.32;100.00;102028.97;5094995;28;20020;-77
2023/05/29 00:09:37;;;;;;;11.87;5.17;;;;;;;12.32;100.00;102030.84;5094942;28;20426;-78
2023/05/29 00:15:24;;;;;;;9.75;3.80;;;;;;;12.26;100.00;102047.72;5117296;28;20838;-79
2023/05/29 00:21:13;;;;;;;10.15;4.72;;;;;;;12.17;100.00;102043.53;5116488;28;20107;-78
2023/05/29 00:27:01;;;;;;;14.90;4.35;;;;;;;12.06;100.00;102051.06;5113465;28;20057;-76
2023/05/29 00:29:27;;;;;;;12.30;4.55;;;;;;;11.97;100.00;102044.19;5093971;28;20043;-76
2023/05/29 00:31:53;;;;;;;12.55;4.72;;;;;;;11.92;100.00;102052.00;5113728;28;20524;-77
2023/05/29 00:34:23;;;;;;;10.57;3.33;;;;;;;11.78;100.00;102042.16;5096591;28;20429;-78
2023/05/29 00:36:48;;;;;;;10.13;4.47;;;;;;;11.80;100.00;102050.81;5113186;28;20038;-78
2023/05/29 00:42:35;;;;;;;7.90;3.13;;;;;;;11.69;100.00;102064.72;5112734;28;20078;-74
2023/05/29 00:48:22;;;;;;;13.30;3.42;;;;;;;11.55;100.00;102077.13;5112214;28;20403;-77
2023/05/29 00:57:42;;;;;;;7.07;2.85;;;;;;;11.31;100.00;102064.94;5112210;28;20517;-75
2023/05/29 01:00:09;;;;;;;10.98;3.42;;;;;;;11.32;100.00;102074.63;5093509;28;20028;-76
2023/05/29 01:02:37;;;;;;;10.48;3.85;;;;;;;11.32;100.00;102074.63;5093226;28;20051;-76
2023/05/29 01:05:03;;;;;;;10.55;3.05;;;;;;;11.21;100.00;102068.91;5093576;28;20474;-77
2023/05/29 01:07:28;;;;;;;8.95;3.15;;;;;;;11.24;100.00;102081.94;5110982;28;20040;-77
2023/05/29 01:09:54;;;;;;;9.80;3.60;;;;;;;11.17;100.00;102082.69;5093579;28;20053;-77
2023/05/29 01:12:30;;;;;;;13.20;3.55;;;;;;;11.22;100.00;102079.44;5111712;28;20546;-77
2023/05/29 01:15:17;;;;;;;9.65;3.08;;;;;;;11.09;100.00;102087.31;5112733;28;20042;-77
2023/05/29 01:21:14;;;;;;;7.53;2.95;;;;;;;11.00;100.00;102093.81;5116298;28;20128;-77
2023/05/29 01:27:04;;;;;;;11.93;3.00;;;;;;;10.98;100.00;102096.63;5115537;28;20153;-77
2023/05/29 01:29:33;;;;;;;8.02;3.22;;;;;;;10.84;100.00;102092.97;5097146;28;20072;-77
2023/05/29 01:35:20;;;;;;;11.38;3.70;;;;;;;10.88;100.00;102098.78;5116362;28;20127;-77
2023/05/29 01:37:46;;;;;;;7.68;3.05;;;;;;;10.73;100.00;102079.22;5115401;28;20020;-76
2023/05/29 01:40:11;;;;;;;13.57;3.45;;;;;;;10.71;100.00;102092.78;5114215;28;20047;-77
2023/05/29 01:42:37;;;;;;;11.48;3.15;;;;;;;10.68;100.00;102097.66;5096923;28;20059;-77
2023/05/29 01:48:25;;;;;;;10.57;3.20;;;;;;;10.66;100.00;102100.50;5115492;28;20054;-77
2023/05/29 01:54:13;;;;;;;14.38;3.13;;;;;;;10.52;100.00;102087.97;5115616;28;20510;-76
2023/05/29 02:00:00;;;;;;;10.38;3.92;;;;;;;10.46;100.00;102081.50;5114937;28;20030;-77
2023/05/29 02:05:47;;;;;;;11.15;3.78;;;;;;;10.39;100.00;102082.41;5114911;28;20097;-77
2023/05/29 02:08:12;;;;;;;11.23;2.88;;;;;;;10.36;100.00;102083.59;5096607;28;20460;-77
2023/05/29 02:10:37;;;;;;;11.82;4.05;;;;;;;10.32;100.00;102082.31;5113906;28;20063;-77
2023/05/29 02:16:27;;;;;;;15.52;3.35;;;;;;;10.27;100.00;102100.75;5114714;28;20392;-76
2023/05/29 02:18:53;;;;;;;10.23;2.88;;;;;;;10.17;100.00;102082.25;5095560;28;20467;-77
2023/05/29 02:24:40;;;;;;;14.27;3.50;;;;;;;10.17;100.00;102087.59;5114731;28;20499;-77
2023/05/29 02:27:05;;;;;;;9.05;2.78;;;;;;;10.10;100.00;102083.97;5114328;28;20028;-76
2023/05/29 02:29:30;;;;;;;7.10;2.83;;;;;;;10.13;100.00;102085.47;5113157;28;20061;-77
2023/05/29 02:35:20;;;;;;;11.10;3.00;;;;;;;10.07;100.00;102097.69;5114297;28;20391;-76
2023/05/29 02:41:08;;;;;;;10.85;2.58;;;;;;;9.96;100.00;102099.97;5114102;28;20042;-77
2023/05/29 02:43:33;;;;;;;12.27;3.10;;;;;;;9.92;100.00;102099.50;5095127;28;20040;-77
2023/05/29 02:45:58;;;;;;;9.57;2.90;;;;;;;9.96;100.00;102103.47;5113756;28;20031;-77
2023/05/29 02:48:25;;;;;;;9.65;2.67;;;;;;;9.91;100.00;102101.34;5113852;28;20028;-76
2023/05/29 02:50:51;;;;;;;11.98;2.97;;;;;;;9.91;100.00;102111.19;5113053;28;20065;-76
2023/05/29 02:53:16;;;;;;;11.77;3.10;;;;;;;9.90;100.00;102122.91;5095456;28;20066;-77
2023/05/29 02:55:42;;;;;;;10.73;2.90;;;;;;;9.88;100.00;102115.06;5112931;28;20452;-77
2023/05/29 02:58:08;;;;;;;12.48;3.10;;;;;;;9.84;100.00;102115.59;5095605;28;20280;-76
2023/05/29 03:00:33;;;;;;;12.43;4.03;;;;;;;9.81;100.00;102115.94;5113654;28;20032;-75
2023/05/29 03:02:58;;;;;;;10.90;3.15;;;;;;;9.78;100.00;102102.94;5112679;28;20047;-77
2023/05/29 03:08:46;;;;;;;6.82;2.30;;;;;;;9.69;100.00;102104.00;5110506;28;20062;-76
2023/05/29 03:11:12;;;;;;;11.10;3.35;;;;;;;9.70;100.00;102121.69;5113815;28;20472;-76
2023/05/29 03:17:01;;;;;;;11.10;3.08;;;;;;;9.65;100.00;102105.38;5113966;28;20055;-78
2023/05/29 03:22:48;;;;;;;10.52;2.75;;;;;;;9.61;100.00;102119.06;5114608;28;20046;-77
2023/05/29 03:28:35;;;;;;;12.13;2.95;;;;;;;9.54;100.00;102114.59;5113269;28;20805;-76
2023/05/29 03:31:01;;;;;;;9.95;3.13;;;;;;;9.51;100.00;102112.28;5094871;28;20114;-76
2023/05/29 03:33:26;;;;;;;13.30;2.97;;;;;;;9.46;100.00;102115.47;5093929;28;20134;-77
2023/05/29 03:35:52;;;;;;;9.63;3.00;;;;;;;9.43;100.00;102107.81;5095197;28;20429;-75
2023/05/29 03:38:17;;;;;;;9.00;2.77;;;;;;;9.42;100.00;102118.69;5094576;28;20019;-77
2023/05/29 03:40:42;;;;;;;12.02;3.03;;;;;;;9.48;100.00;102124.13;5112799;28;20277;-77
2023/05/29 03:43:08;;;;;;;10.80;2.97;;;;;;;9.44;100.00;102122.84;5114074;28;20536;-77
2023/05/29 03:45:33;;;;;;;15.85;3.50;;;;;;;9.44;100.00;102116.66;5094465;28;20043;-76
2023/05/29 03:47:58;;;;;;;12.85;3.83;;;;;;;9.47;100.00;102124.31;5113885;28;20031;-78
2023/05/29 03:50:23;;;;;;;10.73;3.03;;;;;;;9.42;100.00;102119.50;5095806;28;20118;-76
2023/05/29 03:52:49;;;;;;;15.27;3.70;;;;;;;9.50;100.00;102131.97;5094025;28;20289;-78
2023/05/29 03:55:14;;;;;;;16.15;3.58;;;;;;;9.43;100.00;102121.16;5113175;28;20273;-77
2023/05/29 04:01:02;;;;;;;14.32;3.50;;;;;;;9.50;100.00;102131.97;5113888;28;20096;-78
2023/05/29 04:03:29;;;;;;;12.15;3.60;;;;;;;9.56;100.00;102140.13;5095638;28;20036;-78
2023/05/29 04:05:55;;;;;;;11.52;3.00;;;;;;;9.59;100.00;102141.63;5112885;28;20023;-78
2023/05/29 04:08:21;;;;;;;15.15;3.03;;;;;;;9.57;100.00;102135.63;5098518;28;20051;-77
2023/05/29 04:10:46;;;;;;;8.73;2.78;;;;;;;9.64;100.00;102141.94;5096104;28;20093;-78
2023/05/29 04:13:11;;;;;;;17.27;3.08;;;;;;;9.63;100.00;102141.09;5097683;28;20031;-79
2023/05/29 04:15:37;;;;;;;12.60;3.47;;;;;;;9.70;100.00;102143.06;5113395;28;20404;-79
2023/05/29 04:21:25;;;;;;;10.05;2.97;;;;;;;9.86;100.00;102151.81;5115856;28;20147;-78
2023/05/29 04:23:50;;;;;;;9.43;2.88;;;;;;;9.93;100.00;102159.94;5094781;28;20497;-78
2023/05/29 04:26:15;;;;;;;9.80;3.03;;;;;;;9.93;100.00;102154.59;5097385;28;20577;-78
2023/05/29 04:28:42;;;;;;;11.93;3.00;;;;;;;10.02;100.00;102150.03;5097157;28;20285;-78
2023/05/29 04:31:07;;;;;;;11.02;2.80;;;;;;;10.13;100.00;102155.81;5097139;28;20467;-77
2023/05/29 04:33:36;;;;;;;11.85;2.72;;;;;;;10.15;100.00;102158.28;5112544;28;20114;-77
2023/05/29 04:36:03;;;;;;;10.82;2.88;;;;;;;10.16;100.00;102149.25;5113487;28;20032;-78
2023/05/29 04:38:29;;;;;;;11.07;3.00;;;;;;;10.32;100.00;102156.34;5117159;28;20476;-78
2023/05/29 04:40:57;;;;;;;8.93;2.92;;;;;;;10.52;100.00;102162.84;5097287;28;20043;-77
2023/05/29 04:43:23;;;;;;;13.75;3.65;;;;;;;10.59;100.00;102166.47;5094908;28;20032;-79
2023/05/29 04:45:48;;;;;;;11.05;3.40;;;;;;;10.75;100.00;102177.03;5113800;28;20122;-77
2023/05/29 04:48:13;;;;;;;9.63;2.80;;;;;;;10.81;100.00;102172.78;5115779;28;20098;-79
2023/05/29 04:54:01;;;;;;;11.70;3.72;;;;;;;11.10;100.00;102170.13;5116311;28;20050;-78
2023/05/29 04:56:26;;;;;;;9.30;2.55;;;;;;;11.24;100.00;102175.63;5098069;28;20394;-76
2023/05/29 04:58:52;;;;;;;11.27;4.72;;;;;;;11.26;100.00;102168.25;5096885;28;20043;-77
2023/05/29 05:04:39;;;;;;;13.55;3.33;;;;;;;11.63;100.00;102164.63;5116182;28;20039;-77
2023/05/29 05:07:05;;;;;;;9.82;2.67;;;;;;;11.80;100.00;102174.09;5117687;28;20031;-78
2023/05/29 05:09:31;;;;;;;12.10;3.45;;;;;;;12.05;100.00;102171.91;5115288;28;20046;-77
2023/05/29 05:11:57;;;;;;;10.82;3.45;;;;;;;12.29;100.00;102162.66;5116495;28;20028;-77
2023/05/29 05:14:22;;;;;;;5.82;2.63;;;;;;;12.54;100.00;102171.13;5097460;28;20153;-78
2023/05/29 05:16:47;;;;;;;10.80;2.85;;;;;;;12.80;100.00;102173.19;5115958;28;20052;-79
2023/05/29 05:19:12;;;;;;;11.95;3.70;;;;;;;13.17;100.00;102186.25;5121076;28;20487;-79
2023/05/29 05:25:00;;;;;;;14.27;3.25;;;;;;;13.73;96.77;102186.09;5117108;28;20045;-79
2023/05/29 05:27:25;;;;;;;8.05;3.05;;;;;;;13.94;95.23;102194.03;5097941;28;20061;-79
2023/05/29 05:29:50;;;;;;;12.07;3.47;;;;;;;14.03;92.83;102197.34;5099110;28;20487;-78
2023/05/29 05:32:16;;;;;;;10.10;2.60;;;;;;;14.14;91.78;102203.97;5115996;28;20293;-78
2023/05/29 05:34:41;;;;;;;14.73;3.33;;;;;;;14.01;91.08;102202.09;5115429;28;20789;-77
2023/05/29 05:37:07;;;;;;;9.55;2.50;;;;;;;14.07;91.76;102208.50;5098223;28;20039;-78
2023/05/29 05:39:32;;;;;;;10.00;2.33;;;;;;;14.24;89.62;102199.03;5115048;28;20043;-77
2023/05/29 05:45:19;;;;;;;13.45;3.72;;;;;;;15.01;84.08;102206.50;5115144;28;20310;-77
2023/05/29 05:47:46;;;;;;;10.00;3.20;;;;;;;15.06;83.08;102209.44;5090201;28;20028;-77
2023/05/29 05:50:11;;;;;;;11.88;3.72;;;;;;;14.96;83.11;102203.63;5115285;28;20391;-78
2023/05/29 05:52:37;;;;;;;11.20;3.20;;;;;;;15.12;83.64;102195.09;5096589;28;20035;-77
2023/05/29 05:55:03;;;;;;;9.98;3.38;;;;;;;15.45;80.21;102195.00;5114999;28;20110;-75
2023/05/29 05:57:28;;;;;;;8.50;2.63;;;;;;;15.80;79.23;102202.75;5095956;28;20073;-77
2023/05/29 05:59:53;;;;;;;12.30;4.28;;;;;;;16.14;77.22;102193.44;5096404;28;20028;-78
2023/05/29 06:02:19;;;;;;;10.20;3.00;;;;;;;16.39;75.10;102199.69;5115509;28;20038;-77
2023/05/29 06:08:08;;;;;;;9.82;2.92;;;;;;;17.03;72.01;102198.53;5115597;28;20078;-75
2023/05/29 06:10:33;;;;;;;13.45;3.45;;;;;;;17.00;70.90;102193.56;5096061;28;20039;-78
2023/05/29 06:12:58;;;;;;;13.68;3.63;;;;;;;17.07;68.51;102209.75;5096799;28;20471;-77
2023/05/29 06:15:24;;;;;;;13.27;3.10;;;;;;;17.29;67.50;102208.22;5097063;28;20027;-77
2023/05/29 06:17:51;;;;;;;11.07;3.33;;;;;;;17.63;67.18;102217.59;5095988;28;20285;-75
2023/05/29 06:20:17;;;;;;;8.10;2.90;;;;;;;18.02;66.23;102215.47;5096761;28;20023;-77
2023/05/29 06:22:42;;;;;;;11.70;2.95;;;;;;;18.56;63.05;102214.44;5095846;28;20046;-77
2023/05/29 06:25:09;;;;;;;11.68;2.85;;;;;;;18.86;61.00;102225.22;5097242;28;20034;-76
2023/05/29 06:27:34;;;;;;;9.52;3.22;;;;;;;19.11;59.16;102227.69;5113996;28;20031;-78
2023/05/29 06:30:00;;;;;;;9.27;2.80;;;;;;;19.44;57.22;102235.22;5097015;28;20040;-76
2023/05/29 06:32:25;;;;;;;9.18;2.75;;;;;;;19.46;56.27;102227.66;5114680;28;20070;-77
2023/05/29 06:34:50;;;;;;;9.32;3.05;;;;;;;19.53;56.98;102240.25;5114423;28;20039;-77
2023/05/29 06:37:16;;;;;;;9.82;2.58;;;;;;;20.02;56.07;102239.66;5096354;28;20027;-77
2023/05/29 06:39:44;;;;;;;7.95;2.92;;;;;;;20.02;53.57;102236.13;5097043;28;20115;-78
2023/05/29 06:45:31;;;;;;;7.60;2.38;;;;;;;20.83;51.00;102237.56;5115333;28;20140;-77
2023/05/29 06:47:57;;;;;;;10.65;3.38;;;;;;;20.99;49.71;102242.13;5095690;28;20083;-77
2023/05/29 06:53:44;;;;;;;9.32;2.70;;;;;;;21.21;48.67;102241.38;5115055;28;20301;-77
2023/05/29 06:56:10;;;;;;;8.32;3.15;;;;;;;21.65;47.03;102244.97;5114943;28;20016;-76
2023/05/29 06:58:36;;;;;;;9.52;2.75;;;;;;;21.99;46.71;102245.66;5113812;28;20023;-75
2023/05/29 07:01:01;;;;;;;7.75;2.92;;;;;;;21.82;45.04;102234.81;5114052;28;20023;-77
2023/05/29 07:03:27;;;;;;;7.10;2.45;;;;;;;22.13;46.37;102240.63;5114982;28;20059;-77
2023/05/29 07:05:52;;;;;;;10.45;3.15;;;;;;;22.54;45.64;102250.00;5113287;28;20040;-77
2023/05/29 07:08:18;;;;;;;8.20;2.70;;;;;;;22.71;43.19;102250.69;5114322;28;20020;-78
2023/05/29 07:10:43;;;;;;;7.28;2.65;;;;;;;22.81;43.30;102236.34;5095642;28;20126;-77
2023/05/29 07:13:08;;;;;;;8.35;2.83;;;;;;;23.22;41.28;102247.53;5113718;28;20499;-77
2023/05/29 07:15:34;;;;;;;10.32;3.00;;;;;;;23.17;41.25;102246.44;5114247;28;20042;-76
2023/05/29 07:18:00;;;;;;;7.50;2.65;;;;;;;23.42;41.71;102242.19;5113588;28;20100;-78
2023/05/29 07:20:25;;;;;;;7.65;2.72;;;;;;;23.99;39.90;102246.75;5114005;28;20459;-77
2023/05/29 07:22:50;;;;;;;9.05;3.10;;;;;;;24.92;38.81;102243.84;5115388;28;20575;-77
2023/05/29 07:25:15;;;;;;;7.43;2.70;;;;;;;25.16;37.76;102244.13;5114352;28;20038;-76
2023/05/29 07:27:41;;;;;;;10.13;2.97;;;;;;;25.69;36.63;102244.47;5114197;28;20038;-77
2023/05/29 07:30:07;;;;;;;10.40;3.07;;;;;;;25.93;35.60;102253.66;5096330;28;20321;-76
2023/05/29 07:32:33;;;;;;;6.45;2.75;;;;;;;26.00;34.60;102247.88;5096827;28;20141;-76
2023/05/29 07:34:58;;;;;;;8.65;2.92;;;;;;;26.09;33.99;102257.16;5095761;28;20057;-78
2023/05/29 07:37:23;;;;;;;7.18;2.80;;;;;;;26.50;33.99;102261.25;5115193;28;20062;-75
2023/05/29 07:39:49;;;;;;;10.60;2.63;;;;;;;26.76;32.95;102261.88;5097388;28;20396;-76
2023/05/29 07:45:36;;;;;;;9.10;2.78;;;;;;;26.44;33.29;102264.34;5114078;28;20043;-77
2023/05/29 07:48:01;;;;;;;7.43;2.77;;;;;;;26.69;32.91;102264.13;5113127;28;20039;-76
2023/05/29 07:50:27;;;;;;;7.60;2.97;;;;;;;26.97;32.51;102267.16;5095086;28;20027;-75
2023/05/29 07:52:52;;;;;;;8.82;2.83;;;;;;;27.18;32.61;102265.88;5112965;28;20038;-76
2023/05/29 07:55:17;;;;;;;9.52;2.72;;;;;;;27.85;32.28;102266.75;5095198;28;20045;-78
2023/05/29 07:57:43;;;;;;;8.55;2.85;;;;;;;28.02;30.96;102264.28;5095206;28;20028;-76
2023/05/29 08:03:31;;;;;;;8.35;3.30;;;;;;;28.40;29.61;102274.50;5113509;28;20051;-75
2023/05/29 08:05:56;;;;;;;6.50;2.70;;;;;;;28.73;29.74;102276.13;5112672;28;20082;-77
2023/05/29 08:08:22;;;;;;;7.88;3.00;;;;;;;28.83;29.16;102280.63;5095224;28;20024;-76
2023/05/29 08:10:47;;;;;;;6.87;2.50;;;;;;;28.69;29.51;102284.19;5113503;28;20085;-77
2023/05/29 08:13:12;;;;;;;7.40;2.60;;;;;;;28.75;29.66;102281.34;5112438;28;20653;-77
2023/05/29 08:19:03;;;;;;;9.45;2.97;;;;;;;29.21;28.65;102282.19;5113914;28;20038;-76
2023/05/29 08:21:29;;;;;;;7.32;3.00;;;;;;;29.19;28.33;102283.56;5097208;28;20048;-78
2023/05/29 08:23:55;;;;;;;6.32;2.55;;;;;;;29.18;28.28;102288.28;5113879;28;20016;-78
2023/05/29 08:29:42;;;;;;;8.45;2.60;;;;;;;30.00;27.11;102295.72;5116962;28;20046;-76
2023/05/29 08:32:08;;;;;;;8.27;2.70;;;;;;;30.22;26.04;102286.69;5095433;28;20039;-77
2023/05/29 08:34:34;;;;;;;8.00;2.67;;;;;;;30.07;26.65;102284.28;5114234;28;20024;-75
2023/05/29 08:36:59;;;;;;;7.47;2.45;;;;;;;29.87;26.59;102286.34;5112368;28;20498;-77
2023/05/29 08:39:25;;;;;;;7.35;2.60;;;;;;;29.47;27.29;102295.47;5112795;28;20448;-76
2023/05/29 08:41:59;;;;;;;9.20;2.87;;;;;;;28.80;28.04;102298.59;5094945;28;20482;-76
2023/05/29 08:44:26;;;;;;;5.85;2.45;;;;;;;28.55;28.22;102286.06;5114075;28;20047;-77
2023/05/29 08:46:55;;;;;;;9.20;3.00;;;;;;;29.16;28.79;102295.22;5094295;28;20032;-76
2023/05/29 08:49:24;;;;;;;7.50;2.78;;;;;;;29.33;27.58;102286.34;5093818;28;20044;-76
2023/05/29 08:55:12;;;;;;;6.72;2.40;;;;;;;29.65;27.01;102299.25;5113282;28;20093;-77
2023/05/29 09:00:59;;;;;;;6.85;2.80;;;;;;;29.36;27.07;102285.75;5114091;28;20042;-75
2023/05/29 09:06:47;;;;;;;5.63;2.30;;;;;;;27.79;29.07;102298.16;5112769;28;20042;-77
2023/05/29 09:09:12;;;;;;;5.53;2.28;;;;;;;27.53;29.27;102302.31;5111664;28;20059;-76
2023/05/29 09:11:37;;;;;;;9.13;2.75;;;;;;;27.25;30.07;102293.81;5094570;28;20095;-78
2023/05/29 09:17:31;;;;;;;6.97;2.70;;;;;;;26.34;30.84;102291.84;5112714;28;20059;-79
2023/05/29 09:19:57;;;;;;;6.60;2.55;;;;;;;25.73;31.92;102283.91;5093103;28;20043;-76
2023/05/29 09:25:44;;;;;;;6.18;2.47;;;;;;;25.42;34.64;102284.00;5113120;28;20391;-77
2023/05/29 09:28:09;;;;;;;4.75;2.40;;;;;;;25.58;33.25;102290.25;5112720;28;20027;-76
2023/05/29 09:30:37;;;;;;;8.43;2.65;;;;;;;25.64;32.32;102298.16;5094027;28;20035;-77
2023/05/29 09:33:04;;;;;;;8.10;2.92;;;;;;;25.55;33.26;102290.81;5094135;28;20035;-76
2023/05/29 09:35:34;;;;;;;5.50;2.42;;;;;;;25.55;33.48;102291.63;5096670;28;20019;-77
2023/05/29 09:38:00;;;;;;;4.68;2.40;;;;;;;25.27;33.40;102284.06;5115982;28;20472;-78
2023/05/29 09:43:53;;;;;;;7.78;2.72;;;;;;;24.79;35.07;102291.75;5119437;28;20039;-76
2023/05/29 09:49:43;;;;;;;10.45;2.78;;;;;;;24.23;35.55;102269.78;5113816;28;20135;-78
2023/05/29 09:52:16;;;;;;;6.80;2.92;;;;;;;24.03;36.92;102283.44;5097783;28;20388;-76
2023/05/29 09:58:05;;;;;;;7.85;3.10;;;;;;;23.60;38.89;102279.97;5115224;28;20059;-76
2023/05/29 10:00:32;;;;;;;8.45;2.78;;;;;;;23.58;38.23;102271.22;5115211;28;20058;-78
2023/05/29 10:02:57;;;;;;;6.75;2.42;;;;;;;23.56;38.10;102276.13;5116759;28;20130;-79
2023/05/29 10:05:23;;;;;;;8.07;2.40;;;;;;;23.64;37.52;102274.78;5118490;28;20063;-77
2023/05/29 10:07:53;;;;;;;8.52;2.90;;;;;;;23.81;38.92;102269.13;5114405;28;20285;-78
2023/05/29 10:13:41;;;;;;;7.80;2.92;;;;;;;24.28;36.05;102285.41;5115849;28;20047;-78
2023/05/29 10:19:30;;;;;;;5.38;2.30;;;;;;;24.58;35.86;102295.59;5116243;28;20448;-77
2023/05/29 10:21:58;;;;;;;6.95;2.85;;;;;;;24.56;35.29;102282.16;5115978;28;20031;-77
2023/05/29 10:27:46;;;;;;;6.50;2.50;;;;;;;24.34;37.53;102276.97;5115945;28;20042;-78
2023/05/29 10:30:21;;;;;;;9.23;3.28;;;;;;;24.25;37.49;102272.25;5096864;28;20028;-77
2023/05/29 10:33:09;;;;;;;4.75;2.13;;;;;;;24.16;37.91;102268.41;5086365;28;20408;-77
2023/05/29 10:38:56;;;;;;;5.82;2.25;;;;;;;24.48;35.57;102268.22;5114553;28;20092;-76
2023/05/29 10:44:44;;;;;;;6.80;2.47;;;;;;;24.30;37.51;102264.94;5119818;28;20120;-77
2023/05/29 10:54:11;;;;;;;7.25;2.80;;;;;;;24.32;36.93;102279.16;5115593;28;20092;-77
2023/05/29 10:56:36;;;;;;;9.00;3.47;;;;;;;24.29;37.18;102267.94;5116371;28;20050;-78
2023/05/29 10:59:02;;;;;;;5.97;2.72;;;;;;;24.23;36.02;102267.06;5115242;28;20081;-76
2023/05/29 11:01:30;;;;;;;5.80;2.80;;;;;;;24.02;36.37;102263.47;5113700;28;20035;-77
2023/05/29 11:07:34;;;;;;;6.65;2.65;;;;;;;24.33;37.30;102269.84;5116351;28;20081;-77
2023/05/29 11:13:34;;;;;;;6.65;2.40;;;;;;;24.58;36.20;102249.91;5114184;28;20076;-77
2023/05/29 11:16:20;;;;;;;6.78;2.67;;;;;;;24.64;36.15;102243.34;5114484;28;20062;-77
2023/05/29 11:18:47;;;;;;;5.25;2.17;;;;;;;24.51;35.33;102254.81;5114244;28;20023;-76
2023/05/29 11:21:25;;;;;;;6.20;2.70;;;;;;;24.51;40.37;102252.06;5101739;28;20070;-77
2023/05/29 11:27:13;;;;;;;7.75;2.78;;;;;;;23.76;37.04;102239.91;5114209;28;20489;-76
2023/05/29 11:29:38;;;;;;;6.32;2.28;;;;;;;23.71;38.46;102231.69;5113602;28;20032;-75
2023/05/29 11:32:09;;;;;;;6.18;2.88;;;;;;;23.92;37.40;102241.56;5095068;28;20065;-77
2023/05/29 11:34:40;;;;;;;7.57;2.47;;;;;;;23.97;37.89;102238.84;5114057;28;20444;-78
2023/05/29 11:40:27;;;;;;;4.65;2.10;;;;;;;24.53;37.08;102247.16;5117514;28;20042;-77
2023/05/29 11:42:52;;;;;;;6.00;2.47;;;;;;;24.76;36.35;102250.44;5113384;28;20114;-77
2023/05/29 11:45:20;;;;;;;6.15;2.28;;;;;;;25.02;35.60;102243.84;5095198;28;20281;-76
2023/05/29 11:48:02;;;;;;;5.45;2.38;;;;;;;25.27;34.99;102248.44;5095587;28;20486;-77
2023/05/29 11:50:30;;;;;;;5.25;2.50;;;;;;;25.48;33.94;102247.28;5095928;28;20040;-75
2023/05/29 11:52:57;;;;;;;8.23;2.75;;;;;;;25.42;33.54;102242.09;5113039;28;20042;-76
2023/05/29 11:58:45;;;;;;;4.47;2.38;;;;;;;26.10;31.88;102237.66;5112978;28;20063;-77
2023/05/29 12:01:11;;;;;;;4.75;2.42;;;;;;;26.24;32.03;102233.16;5112949;28;20019;-77
2023/05/29 12:03:43;;;;;;;5.10;2.30;;;;;;;26.33;32.15;102229.84;5111822;28;20044;-77
2023/05/29 12:06:11;;;;;;;6.15;2.47;;;;;;;26.24;32.81;102233.16;5112874;28;20029;-77
2023/05/29 12:08:38;;;;;;;7.35;2.60;;;;;;;26.01;30.62;102241.28;5112127;28;20531;-76
2023/05/29 12:11:04;;;;;;;6.88;2.53;;;;;;;25.81;32.26;102240.31;5112657;28;20039;-75
2023/05/29 12:13:30;;;;;;;5.90;2.90;;;;;;;25.92;32.41;102236.41;5112440;28;20067;-76
2023/05/29 12:19:17;;;;;;;5.53;2.17;;;;;;;26.07;32.69;102227.28;5112821;28;20031;-76
2023/05/29 12:21:43;;;;;;;6.43;2.63;;;;;;;25.48;32.52;102230.03;5093664;28;20392;-76
2023/05/29 12:27:31;;;;;;;5.28;2.38;;;;;;;25.10;33.37;102232.34;5111597;28;20510;-76
2023/05/29 12:30:03;;;;;;;6.50;2.75;;;;;;;25.07;32.64;102223.84;5112382;28;20027;-77
2023/05/29 12:32:39;;;;;;;6.00;2.42;;;;;;;24.69;33.23;102234.28;5112366;28;20085;-75
2023/05/29 12:35:15;;;;;;;6.35;2.85;;;;;;;24.44;34.59;102229.66;5093295;28;20070;-77
2023/05/29 12:38:10;;;;;;;5.70;2.40;;;;;;;24.62;32.77;102239.22;5094172;28;20081;-75
2023/05/29 12:40:38;;;;;;;5.97;2.50;;;;;;;24.79;31.36;102245.22;5093533;28;20399;-76
2023/05/29 12:43:06;;;;;;;5.28;2.42;;;;;;;24.71;30.97;102232.09;5111989;28;20110;-76
2023/05/29 12:48:55;;;;;;;7.65;2.58;;;;;;;24.57;31.95;102237.28;5112629;28;20099;-75
2023/05/29 12:54:41;;;;;;;5.50;2.50;;;;;;;24.31;32.69;102232.94;5112385;28;20067;-76
2023/05/29 12:57:07;;;;;;;6.00;2.50;;;;;;;24.19;32.67;102235.06;5112180;28;20487;-76
2023/05/29 12:59:32;;;;;;;8.55;2.28;;;;;;;24.08;32.23;102234.22;5093110;28;20324;-76
2023/05/29 13:01:57;;;;;;;4.90;2.30;;;;;;;24.15;33.12;102240.25;5111884;28;20027;-75
2023/05/29 13:04:23;;;;;;;7.53;2.50;;;;;;;24.22;34.90;102235.34;5093227;28;20872;-76
2023/05/29 13:06:49;;;;;;;8.40;2.67;;;;;;;24.22;33.25;102235.34;5093821;28;20490;-77
2023/05/29 13:09:15;;;;;;;8.52;3.00;;;;;;;24.08;32.78;102228.75;5093509;28;20415;-76
2023/05/29 13:15:02;;;;;;;5.05;2.30;;;;;;;23.64;33.83;102229.19;5115874;28;20556;-75
2023/05/29 13:17:27;;;;;;;6.63;2.80;;;;;;;22.84;34.71;102224.91;5096451;28;20043;-74
2023/05/29 13:19:53;;;;;;;8.23;3.13;;;;;;;22.97;35.43;102229.91;5096766;28;20100;-76
2023/05/29 13:22:18;;;;;;;6.00;2.50;;;;;;;23.23;34.70;102227.34;5115321;28;20276;-76
2023/05/29 13:31:43;;;;;;;6.88;2.80;;;;;;;23.46;34.06;102232.38;5115579;28;20388;-76
2023/05/29 13:34:08;;;;;;;5.13;2.67;;;;;;;23.16;34.14;102225.69;5096837;28;20031;-76
2023/05/29 13:36:33;;;;;;;8.95;2.80;;;;;;;23.19;35.19;102224.31;5114269;28;20039;-76
2023/05/29 13:42:22;;;;;;;6.28;2.85;;;;;;;22.89;34.78;102219.50;5115552;28;20276;-77
2023/05/29 13:44:48;;;;;;;7.10;2.72;;;;;;;22.81;36.76;102225.44;5115186;28;20095;-77
2023/05/29 13:47:14;;;;;;;11.40;2.88;;;;;;;22.50;37.36;102218.88;5096038;28;20053;-75
2023/05/29 13:49:39;;;;;;;8.70;2.97;;;;;;;22.35;38.91;102219.59;5096354;28;20048;-75
2023/05/29 13:55:26;;;;;;;7.47;2.85;;;;;;;22.32;38.99;102208.41;5114994;28;20046;-77
2023/05/29 13:57:52;;;;;;;6.00;2.60;;;;;;;22.20;40.69;102208.53;5114601;28;20027;-76
2023/05/29 14:00:18;;;;;;;7.30;2.83;;;;;;;22.02;37.93;102206.16;5113848;28;20122;-76
2023/05/29 14:02:43;;;;;;;8.25;3.13;;;;;;;21.62;40.95;102210.06;5096099;28;20126;-75
2023/05/29 14:05:10;;;;;;;7.10;2.70;;;;;;;21.73;40.26;102214.59;5114532;28;20055;-76
2023/05/29 14:07:36;;;;;;;8.45;2.90;;;;;;;21.93;39.48;102208.50;5113816;28;20796;-75
2023/05/29 14:10:01;;;;;;;8.93;2.60;;;;;;;22.14;39.78;102209.59;5114507;28;20027;-77
2023/05/29 14:12:27;;;;;;;5.80;2.67;;;;;;;22.23;38.44;102210.75;5095524;28;20745;-76
2023/05/29 14:14:52;;;;;;;6.47;2.83;;;;;;;22.34;38.78;102208.97;5114240;28;20024;-75
2023/05/29 14:17:17;;;;;;;10.17;3.20;;;;;;;22.25;38.27;102201.22;5114454;28;20271;-75
2023/05/29 14:19:45;;;;;;;6.43;2.97;;;;;;;22.06;39.91;102210.06;5095558;28;20365;-74
2023/05/29 14:25:33;;;;;;;9.45;3.15;;;;;;;22.11;38.24;102205.47;5115112;28;20045;-75
2023/05/29 14:31:21;;;;;;;6.55;2.85;;;;;;;22.13;38.88;102197.03;5115067;28;20046;-76
2023/05/29 14:37:07;;;;;;;9.82;3.33;;;;;;;22.01;38.21;102199.06;5114925;28;20168;-73
2023/05/29 14:42:54;;;;;;;6.07;2.80;;;;;;;21.78;38.33;102192.84;5114118;28;20073;-72
2023/05/29 14:45:23;;;;;;;6.13;2.70;;;;;;;21.79;39.22;102205.38;5114061;28;20028;-74
2023/05/29 14:51:10;;;;;;;8.68;3.13;;;;;;;21.73;38.36;102209.13;5114641;28;20067;-77
2023/05/29 14:53:36;;;;;;;8.52;3.10;;;;;;;21.84;40.12;102210.88;5095672;28;20491;-74
2023/05/29 14:56:02;;;;;;;9.48;2.90;;;;;;;21.93;38.98;102212.06;5112832;28;20028;-74
2023/05/29 15:01:49;;;;;;;7.80;3.03;;;;;;;21.89;38.56;102208.22;5114169;28;20046;-75
2023/05/29 15:07:36;;;;;;;8.98;3.20;;;;;;;21.70;38.71;102198.75;5114070;28;20567;-75
2023/05/29 15:13:25;;;;;;;7.25;2.90;;;;;;;21.46;37.48;102202.81;5113599;28;20074;-73
2023/05/29 15:19:12;;;;;;;8.82;3.05;;;;;;;21.08;38.37;102204.44;5113670;28;20043;-75
2023/05/29 15:25:00;;;;;;;8.20;3.20;;;;;;;21.13;37.75;102196.38;5113243;28;20483;-75
2023/05/29 15:30:47;;;;;;;9.20;3.00;;;;;;;21.28;36.89;102201.22;5115482;28;20508;-75
2023/05/29 15:36:36;;;;;;;7.13;2.63;;;;;;;21.38;37.22;102182.28;5115829;28;20525;-77